EWG24U LEPA-EDSB
Flight info
| Callsign | EWG24U |
|---|---|
| Flight time | 1h 34m |
| Altitude | 32000 |
| Route | MEROS DCT LAPIT DCT CHELY DCT LUMAS DCT MAXIR DCT LUSOL DCT BODRU DCT OKTET DCT IRMAR/N0440F360 DCT KINES DCT VANAS DCT MOBLO DCT LAMUR DCT KORED DCT BERSU/N0398F240 Z141 KBA |
| Aircraft | A320/M-SDE3FGHIRWY/LB1 |
Departure
| Time | 2026-05-04 06:33 |
|---|---|
| Airport | Palma de Mallorca Airport (LEPA) |
Arrival
| Time | 2026-05-04 08:08 |
|---|---|
| Airport | Karlsruhe Baden-Baden Airport (EDSB) |
| Time | Latitude | Longitude | Altitude | Speed | Heading |
|---|---|---|---|---|---|
| 2026-05-04 06:20 | 39.55018 | 2.73494 | 35 ft | 0 kts | 164° |
| 2026-05-04 06:25 | 39.55056 | 2.73446 | 33 ft | 1 kts | 58° |
| 2026-05-04 06:25 | 39.55054 | 2.73441 | 32 ft | 0 kts | 58° |
| 2026-05-04 06:28 | 39.55054 | 2.73442 | 33 ft | 2 kts | 58° |
| 2026-05-04 06:28 | 39.55087 | 2.73510 | 36 ft | 16 kts | 58° |
| 2026-05-04 06:28 | 39.55153 | 2.73641 | 36 ft | 18 kts | 54° |
| 2026-05-04 06:28 | 39.55170 | 2.73753 | 35 ft | 10 kts | 132° |
| 2026-05-04 06:29 | 39.55194 | 2.73821 | 36 ft | 9 kts | 17° |
| 2026-05-04 06:29 | 39.55269 | 2.73783 | 36 ft | 20 kts | 315° |
| 2026-05-04 06:29 | 39.55409 | 2.73663 | 35 ft | 26 kts | 327° |
| 2026-05-04 06:29 | 39.55574 | 2.73527 | 28 ft | 30 kts | 327° |
| 2026-05-04 06:30 | 39.55659 | 2.73514 | 26 ft | 12 kts | 66° |
| 2026-05-04 06:30 | 39.55741 | 2.73683 | 27 ft | 27 kts | 57° |
| 2026-05-04 06:30 | 39.55846 | 2.73899 | 24 ft | 29 kts | 59° |
| 2026-05-04 06:30 | 39.55952 | 2.74134 | 20 ft | 31 kts | 59° |
| 2026-05-04 06:31 | 39.56109 | 2.74332 | 17 ft | 33 kts | 31° |
| 2026-05-04 06:31 | 39.56221 | 2.74284 | 19 ft | 17 kts | 293° |
| 2026-05-04 06:31 | 39.56184 | 2.74175 | 18 ft | 14 kts | 239° |
| 2026-05-04 06:31 | 39.56056 | 2.73900 | 21 ft | 71 kts | 239° |
| 2026-05-04 06:32 | 39.55680 | 2.73106 | 26 ft | 133 kts | 238° |
| 2026-05-04 06:33 | 39.50029 | 2.61725 | 5384 ft | 275 kts | 236° |
| 2026-05-04 06:34 | 39.48612 | 2.59989 | 6420 ft | 292 kts | 211° |
| 2026-05-04 06:34 | 39.46656 | 2.59076 | 7406 ft | 311 kts | 188° |
| 2026-05-04 06:34 | 39.44451 | 2.59349 | 8416 ft | 331 kts | 163° |
| 2026-05-04 06:34 | 39.42477 | 2.60978 | 9457 ft | 348 kts | 136° |
| 2026-05-04 06:35 | 39.41204 | 2.63673 | 10324 ft | 367 kts | 110° |
| 2026-05-04 06:36 | 39.41904 | 2.88913 | 16423 ft | 428 kts | 89° |
| 2026-05-04 06:37 | 39.42003 | 2.92775 | 17328 ft | 431 kts | 90° |
| 2026-05-04 06:37 | 39.42077 | 2.96657 | 18246 ft | 433 kts | 90° |
| 2026-05-04 06:37 | 39.42145 | 3.00559 | 19067 ft | 434 kts | 90° |
| 2026-05-04 06:37 | 39.42220 | 3.04470 | 19903 ft | 435 kts | 90° |
| 2026-05-04 06:38 | 39.42304 | 3.08418 | 20543 ft | 443 kts | 90° |
| 2026-05-04 06:38 | 39.42396 | 3.12427 | 21170 ft | 449 kts | 90° |
| 2026-05-04 06:40 | 39.49032 | 3.39317 | 25518 ft | 460 kts | 58° |
| 2026-05-04 06:40 | 39.50645 | 3.42828 | 26125 ft | 458 kts | 58° |
| 2026-05-04 06:40 | 39.52267 | 3.46365 | 26745 ft | 456 kts | 58° |
| 2026-05-04 06:40 | 39.53881 | 3.49887 | 27371 ft | 454 kts | 58° |
| 2026-05-04 06:41 | 39.55499 | 3.53417 | 27831 ft | 457 kts | 58° |
| 2026-05-04 06:41 | 39.57125 | 3.56976 | 28232 ft | 461 kts | 58° |
| 2026-05-04 06:41 | 39.58760 | 3.60565 | 28626 ft | 464 kts | 58° |
| 2026-05-04 06:41 | 39.60408 | 3.64187 | 29015 ft | 468 kts | 58° |
| 2026-05-04 06:42 | 39.62077 | 3.67851 | 29292 ft | 474 kts | 58° |
| 2026-05-04 06:42 | 39.63762 | 3.71554 | 29574 ft | 479 kts | 58° |
| 2026-05-04 06:42 | 39.65466 | 3.75295 | 29853 ft | 484 kts | 58° |
| 2026-05-04 06:44 | 39.77765 | 4.02462 | 31597 ft | 510 kts | 58° |
| 2026-05-04 06:44 | 39.79557 | 4.06455 | 31854 ft | 512 kts | 58° |
| 2026-05-04 06:44 | 39.81364 | 4.10451 | 32106 ft | 514 kts | 56° |
| 2026-05-04 06:45 | 39.83482 | 4.14196 | 32364 ft | 512 kts | 45° |
| 2026-05-04 06:45 | 39.86002 | 4.17443 | 32624 ft | 509 kts | 35° |
| 2026-05-04 06:45 | 39.88816 | 4.20093 | 32896 ft | 503 kts | 25° |
| 2026-05-04 06:45 | 39.91907 | 4.22162 | 33156 ft | 496 kts | 16° |
| 2026-05-04 06:46 | 39.95149 | 4.23594 | 33425 ft | 489 kts | 7° |
| 2026-05-04 06:46 | 39.98457 | 4.24461 | 33697 ft | 485 kts | 2° |
| 2026-05-04 06:46 | 40.01784 | 4.25242 | 33976 ft | 485 kts | 2° |
| 2026-05-04 06:46 | 40.05104 | 4.26024 | 34218 ft | 486 kts | 3° |
| 2026-05-04 06:48 | 40.28308 | 4.31504 | 35942 ft | 481 kts | 3° |
| 2026-05-04 06:48 | 40.31598 | 4.32281 | 36192 ft | 479 kts | 3° |
| 2026-05-04 06:49 | 40.34870 | 4.33054 | 36452 ft | 478 kts | 3° |
| 2026-05-04 06:50 | 40.57932 | 4.38539 | 37008 ft | 490 kts | 3° |
| 2026-05-04 06:51 | 40.64643 | 4.40157 | 37004 ft | 491 kts | 3° |
| 2026-05-04 06:51 | 40.71363 | 4.41765 | 37005 ft | 490 kts | 3° |
| 2026-05-04 06:52 | 40.78080 | 4.43367 | 37007 ft | 491 kts | 3° |
| 2026-05-04 06:52 | 40.84754 | 4.44974 | 37010 ft | 491 kts | 3° |
| 2026-05-04 06:53 | 40.91473 | 4.46598 | 37011 ft | 491 kts | 3° |
| 2026-05-04 06:53 | 40.98197 | 4.48230 | 37022 ft | 491 kts | 3° |
| 2026-05-04 06:54 | 41.04924 | 4.49857 | 37018 ft | 491 kts | 3° |
| 2026-05-04 06:54 | 41.11648 | 4.51495 | 37022 ft | 491 kts | 3° |
| 2026-05-04 06:55 | 41.18375 | 4.53138 | 37022 ft | 491 kts | 4° |
| 2026-05-04 06:55 | 41.25102 | 4.54774 | 37024 ft | 491 kts | 4° |
| 2026-05-04 06:57 | 41.51961 | 4.61379 | 37029 ft | 490 kts | 4° |
| 2026-05-04 06:58 | 41.58635 | 4.63026 | 37020 ft | 490 kts | 4° |
| 2026-05-04 06:58 | 41.65340 | 4.64678 | 37020 ft | 490 kts | 4° |
| 2026-05-04 06:59 | 41.72033 | 4.66550 | 37018 ft | 496 kts | 12° |
| 2026-05-04 06:59 | 41.78294 | 4.70638 | 37023 ft | 505 kts | 27° |
| 2026-05-04 07:01 | 42.02376 | 4.90054 | 37029 ft | 504 kts | 27° |
| 2026-05-04 07:02 | 42.08387 | 4.94915 | 37034 ft | 504 kts | 27° |
| 2026-05-04 07:02 | 42.14386 | 4.99782 | 37038 ft | 503 kts | 27° |
| 2026-05-04 07:03 | 42.20375 | 5.04658 | 37038 ft | 503 kts | 27° |
| 2026-05-04 07:03 | 42.26366 | 5.09556 | 37040 ft | 503 kts | 27° |
| 2026-05-04 07:04 | 42.32352 | 5.14458 | 37046 ft | 503 kts | 27° |
| 2026-05-04 07:04 | 42.38339 | 5.19355 | 37047 ft | 503 kts | 27° |
| 2026-05-04 07:05 | 42.44312 | 5.24262 | 37049 ft | 503 kts | 27° |
| 2026-05-04 07:05 | 42.50244 | 5.29150 | 37056 ft | 502 kts | 27° |
| 2026-05-04 07:06 | 42.59199 | 5.36541 | 37059 ft | 502 kts | 27° |
| 2026-05-04 07:07 | 42.65161 | 5.41476 | 37061 ft | 501 kts | 27° |
| 2026-05-04 07:09 | 42.88948 | 5.61280 | 37070 ft | 500 kts | 28° |
| 2026-05-04 07:09 | 42.94877 | 5.66253 | 37072 ft | 500 kts | 28° |
| 2026-05-04 07:10 | 43.00805 | 5.71240 | 37079 ft | 500 kts | 28° |
| 2026-05-04 07:12 | 43.23533 | 5.90427 | 37105 ft | 501 kts | 28° |
| 2026-05-04 07:12 | 43.29466 | 5.95458 | 37106 ft | 501 kts | 28° |
| 2026-05-04 07:13 | 43.36386 | 6.01250 | 37113 ft | 499 kts | 24° |
| 2026-05-04 07:13 | 43.41780 | 6.03966 | 37119 ft | 489 kts | 7° |
| 2026-05-04 07:14 | 43.58549 | 6.05966 | 37111 ft | 484 kts | 359° |
| 2026-05-04 07:15 | 43.65223 | 6.06639 | 37107 ft | 484 kts | 360° |
| 2026-05-04 07:15 | 43.71941 | 6.07322 | 37115 ft | 484 kts | 360° |
| 2026-05-04 07:16 | 43.78591 | 6.09035 | 37118 ft | 493 kts | 17° |
| 2026-05-04 07:16 | 43.84832 | 6.13091 | 37126 ft | 496 kts | 23° |
| 2026-05-04 07:17 | 43.91026 | 6.17318 | 37126 ft | 496 kts | 23° |
| 2026-05-04 07:17 | 43.97229 | 6.21536 | 37125 ft | 496 kts | 23° |
| 2026-05-04 07:18 | 44.03423 | 6.25765 | 37129 ft | 496 kts | 23° |
| 2026-05-04 07:18 | 44.09615 | 6.30015 | 37132 ft | 496 kts | 24° |
| 2026-05-04 07:19 | 44.15806 | 6.34273 | 37130 ft | 496 kts | 24° |
| 2026-05-04 07:19 | 44.21987 | 6.38540 | 37128 ft | 496 kts | 24° |
| 2026-05-04 07:20 | 44.28168 | 6.42818 | 37129 ft | 496 kts | 24° |
| 2026-05-04 07:20 | 44.34345 | 6.47104 | 37124 ft | 495 kts | 24° |
| 2026-05-04 07:22 | 44.58970 | 6.64252 | 37124 ft | 493 kts | 24° |
| 2026-05-04 07:23 | 44.65103 | 6.68552 | 37135 ft | 493 kts | 24° |
| 2026-05-04 07:23 | 44.71238 | 6.72867 | 37142 ft | 493 kts | 24° |
| 2026-05-04 07:24 | 44.77429 | 6.76993 | 37141 ft | 490 kts | 16° |
| 2026-05-04 07:24 | 44.83990 | 6.78710 | 37152 ft | 480 kts | 357° |
| 2026-05-04 07:26 | 45.10583 | 6.77039 | 37140 ft | 479 kts | 354° |
| 2026-05-04 07:27 | 45.17240 | 6.76592 | 37127 ft | 479 kts | 353° |
| 2026-05-04 07:27 | 45.23902 | 6.76142 | 37122 ft | 479 kts | 354° |
| 2026-05-04 07:28 | 45.30567 | 6.75697 | 37110 ft | 480 kts | 354° |
| 2026-05-04 07:28 | 45.37238 | 6.75254 | 37105 ft | 480 kts | 353° |
| 2026-05-04 07:29 | 45.43916 | 6.74812 | 37094 ft | 480 kts | 354° |
| 2026-05-04 07:29 | 45.50582 | 6.74357 | 37092 ft | 480 kts | 353° |
| 2026-05-04 07:30 | 45.57210 | 6.73897 | 37083 ft | 480 kts | 353° |
| 2026-05-04 07:30 | 45.63887 | 6.73444 | 37082 ft | 480 kts | 353° |
| 2026-05-04 07:31 | 45.70569 | 6.72981 | 37071 ft | 481 kts | 354° |
| 2026-05-04 07:33 | 45.93227 | 6.80280 | 37058 ft | 492 kts | 22° |
| 2026-05-04 07:33 | 45.96342 | 6.82310 | 37054 ft | 491 kts | 22° |
| 2026-05-04 07:33 | 46.02577 | 6.86375 | 37051 ft | 492 kts | 22° |
| 2026-05-04 07:34 | 46.08804 | 6.90458 | 37054 ft | 492 kts | 22° |
| 2026-05-04 07:34 | 46.15033 | 6.94579 | 37055 ft | 491 kts | 22° |
| 2026-05-04 07:35 | 46.21255 | 6.98684 | 37053 ft | 491 kts | 22° |
| 2026-05-04 07:35 | 46.27479 | 7.02799 | 37066 ft | 492 kts | 22° |
| 2026-05-04 07:36 | 46.33709 | 7.06931 | 37068 ft | 492 kts | 22° |
| 2026-05-04 07:38 | 46.58549 | 7.23528 | 37061 ft | 491 kts | 23° |
| 2026-05-04 07:38 | 46.64746 | 7.27683 | 37068 ft | 490 kts | 23° |
| 2026-05-04 07:39 | 46.70896 | 7.31822 | 37070 ft | 490 kts | 23° |
| 2026-05-04 07:39 | 46.77125 | 7.36025 | 37075 ft | 490 kts | 23° |
| 2026-05-04 07:40 | 46.83170 | 7.40473 | 37075 ft | 491 kts | 33° |
| 2026-05-04 07:40 | 46.88199 | 7.47180 | 37076 ft | 491 kts | 52° |
| 2026-05-04 07:41 | 46.92451 | 7.55000 | 37072 ft | 491 kts | 52° |
| 2026-05-04 07:41 | 46.96708 | 7.62842 | 37071 ft | 491 kts | 52° |
| 2026-05-04 07:42 | 47.00959 | 7.70684 | 37063 ft | 492 kts | 52° |
| 2026-05-04 07:42 | 47.05197 | 7.78555 | 37062 ft | 492 kts | 52° |
| 2026-05-04 07:43 | 47.09460 | 7.86399 | 37059 ft | 492 kts | 47° |
| 2026-05-04 07:43 | 47.14799 | 7.92583 | 37061 ft | 489 kts | 26° |
| 2026-05-04 07:44 | 47.17909 | 7.94559 | 37055 ft | 487 kts | 15° |
| 2026-05-04 07:44 | 47.21189 | 7.95721 | 37054 ft | 483 kts | 6° |
| 2026-05-04 07:44 | 47.27803 | 7.97106 | 37053 ft | 484 kts | 5° |
| 2026-05-04 07:45 | 47.34473 | 7.98504 | 37052 ft | 484 kts | 5° |
| 2026-05-04 07:45 | 47.41148 | 7.99909 | 37054 ft | 485 kts | 5° |
| 2026-05-04 07:46 | 47.47829 | 8.01323 | 37062 ft | 485 kts | 5° |
| 2026-05-04 07:46 | 47.54515 | 8.02728 | 37063 ft | 485 kts | 5° |
| 2026-05-04 07:47 | 47.61201 | 8.04141 | 37068 ft | 485 kts | 5° |
| 2026-05-04 07:49 | 47.87753 | 8.09426 | 37059 ft | 484 kts | 3° |
| 2026-05-04 07:49 | 47.94457 | 8.10441 | 37058 ft | 484 kts | 3° |
| 2026-05-04 07:50 | 48.01160 | 8.11506 | 37054 ft | 485 kts | 3° |
| 2026-05-04 07:50 | 48.07861 | 8.12629 | 37053 ft | 485 kts | 4° |
| 2026-05-04 07:51 | 48.14569 | 8.13769 | 37039 ft | 485 kts | 4° |
| 2026-05-04 07:51 | 48.21207 | 8.15557 | 37033 ft | 489 kts | 22° |
| 2026-05-04 07:52 | 48.24114 | 8.18218 | 37033 ft | 491 kts | 41° |
| 2026-05-04 07:52 | 48.26336 | 8.22085 | 37026 ft | 490 kts | 60° |
| 2026-05-04 07:52 | 48.29112 | 8.31375 | 37012 ft | 489 kts | 69° |
| 2026-05-04 07:53 | 48.30411 | 8.36097 | 36883 ft | 488 kts | 69° |
| 2026-05-04 07:54 | 48.45699 | 8.58964 | 29734 ft | 482 kts | 344° |
| 2026-05-04 07:55 | 48.48786 | 8.57163 | 28432 ft | 474 kts | 324° |
| 2026-05-04 07:55 | 48.51248 | 8.53956 | 27085 ft | 466 kts | 304° |
| 2026-05-04 07:55 | 48.53038 | 8.49901 | 25780 ft | 464 kts | 298° |
| 2026-05-04 07:55 | 48.54738 | 8.45782 | 24828 ft | 459 kts | 298° |
| 2026-05-04 07:56 | 48.56424 | 8.41712 | 23945 ft | 455 kts | 300° |
| 2026-05-04 07:56 | 48.58424 | 8.38025 | 23031 ft | 455 kts | 313° |
| 2026-05-04 07:56 | 48.60791 | 8.34863 | 22100 ft | 452 kts | 316° |
| 2026-05-04 07:56 | 48.63155 | 8.31766 | 21233 ft | 448 kts | 316° |
| 2026-05-04 07:57 | 48.65499 | 8.28687 | 20408 ft | 444 kts | 316° |
| 2026-05-04 07:57 | 48.67041 | 8.26659 | 19896 ft | 442 kts | 316° |
| 2026-05-04 07:57 | 48.69348 | 8.23619 | 19135 ft | 439 kts | 315° |
| 2026-05-04 07:57 | 48.71643 | 8.20591 | 18407 ft | 435 kts | 316° |
| 2026-05-04 07:58 | 48.73914 | 8.17584 | 17635 ft | 432 kts | 316° |
| 2026-05-04 07:58 | 48.76170 | 8.14606 | 16921 ft | 428 kts | 318° |
| 2026-05-04 07:58 | 48.78719 | 8.12326 | 16279 ft | 428 kts | 339° |
| 2026-05-04 07:58 | 48.81645 | 8.11646 | 15686 ft | 428 kts | 1° |
| 2026-05-04 07:59 | 48.84512 | 8.12676 | 15082 ft | 425 kts | 25° |
| 2026-05-04 07:59 | 48.86888 | 8.15258 | 14499 ft | 420 kts | 48° |
| 2026-05-04 07:59 | 48.88435 | 8.18947 | 13911 ft | 413 kts | 67° |
| 2026-05-04 07:59 | 48.89589 | 8.22935 | 13201 ft | 410 kts | 68° |
| 2026-05-04 08:00 | 48.90727 | 8.26885 | 12504 ft | 407 kts | 68° |
| 2026-05-04 08:00 | 48.91867 | 8.30798 | 11815 ft | 403 kts | 65° |
| 2026-05-04 08:00 | 48.93453 | 8.34274 | 11152 ft | 400 kts | 47° |
| 2026-05-04 08:02 | 49.06872 | 8.37508 | 4448 ft | 337 kts | 274° |
| 2026-05-04 08:02 | 49.06546 | 8.34006 | 4184 ft | 336 kts | 245° |
| 2026-05-04 08:02 | 49.05165 | 8.31179 | 4026 ft | 336 kts | 218° |
| 2026-05-04 08:03 | 49.03061 | 8.29712 | 4023 ft | 337 kts | 191° |
| 2026-05-04 08:03 | 49.00720 | 8.29294 | 4033 ft | 339 kts | 189° |
| 2026-05-04 08:03 | 48.98579 | 8.28068 | 4031 ft | 314 kts | 215° |
| 2026-05-04 08:03 | 48.96990 | 8.26124 | 4038 ft | 275 kts | 218° |
| 2026-05-04 08:04 | 48.95509 | 8.24568 | 4046 ft | 245 kts | 213° |
| 2026-05-04 08:04 | 48.94143 | 8.23293 | 3869 ft | 223 kts | 212° |
| 2026-05-04 08:04 | 48.92862 | 8.22095 | 3632 ft | 210 kts | 212° |
| 2026-05-04 08:04 | 48.91634 | 8.20939 | 3348 ft | 203 kts | 212° |
| 2026-05-04 08:05 | 48.90462 | 8.19834 | 3124 ft | 195 kts | 212° |
| 2026-05-04 08:05 | 48.89338 | 8.18774 | 2848 ft | 184 kts | 212° |
| 2026-05-04 08:05 | 48.88266 | 8.17763 | 2594 ft | 178 kts | 212° |
| 2026-05-04 08:05 | 48.87215 | 8.16772 | 2355 ft | 179 kts | 212° |
| 2026-05-04 08:06 | 48.86153 | 8.15774 | 2124 ft | 180 kts | 212° |
| 2026-05-04 08:06 | 48.85082 | 8.14765 | 1888 ft | 181 kts | 212° |
| 2026-05-04 08:06 | 48.84033 | 8.13778 | 1641 ft | 172 kts | 212° |
| 2026-05-04 08:06 | 48.83075 | 8.12878 | 1417 ft | 153 kts | 212° |
| 2026-05-04 08:08 | 48.77764 | 8.08035 | 412 ft | 23 kts | 113° |
| 2026-05-04 08:08 | 48.77788 | 8.08251 | 409 ft | 21 kts | 78° |